createdAt,value
2022-08-02T00:00:47.493Z,20.13
2022-08-02T00:03:17.874Z,20.02
2022-08-02T00:05:53.152Z,20.02
2022-08-02T00:08:20.337Z,19.91
2022-08-02T00:10:50.932Z,19.86
2022-08-02T00:13:21.274Z,19.73
2022-08-02T00:15:51.914Z,19.73
2022-08-02T00:18:22.227Z,19.73
2022-08-02T00:20:52.515Z,19.79
2022-08-02T00:23:22.923Z,19.78
2022-08-02T00:25:55.019Z,19.72
2022-08-02T00:28:27.351Z,19.66
2022-08-02T00:30:58.895Z,19.66
2022-08-02T00:34:26.818Z,19.83
2022-08-02T00:36:01.130Z,19.73
2022-08-02T00:38:31.699Z,19.68
2022-08-02T00:41:01.978Z,19.68
2022-08-02T00:43:32.548Z,19.74
2022-08-02T00:46:04.000Z,19.71
2022-08-02T00:48:34.863Z,19.71
2022-08-02T00:51:05.534Z,19.59
2022-08-02T00:53:35.859Z,19.59
2022-08-02T00:56:06.231Z,19.66
2022-08-02T00:58:37.970Z,19.64
2022-08-02T01:01:08.673Z,19.61
2022-08-02T01:03:39.081Z,19.59
2022-08-02T01:06:12.377Z,19.59
2022-08-02T01:08:41.740Z,19.53
2022-08-02T01:11:13.782Z,19.53
2022-08-02T01:13:44.626Z,19.47
2022-08-02T01:16:17.882Z,19.47
2022-08-02T01:18:51.118Z,19.49
2022-08-02T01:21:39.503Z,19.53
2022-08-02T01:24:30.485Z,19.71
2022-08-02T01:27:24.143Z,19.77
2022-08-02T01:29:57.246Z,19.77
2022-08-02T01:32:30.558Z,19.72
2022-08-02T01:35:04.265Z,19.75
2022-08-02T01:37:55.381Z,19.75
2022-08-02T01:40:31.124Z,19.60
2022-08-02T01:43:02.119Z,19.60
2022-08-02T01:45:35.783Z,19.54
2022-08-02T01:48:08.683Z,19.48
2022-08-02T01:50:39.812Z,19.41
2022-08-02T01:53:12.624Z,19.38
2022-08-02T01:55:57.525Z,19.37
2022-08-02T01:58:20.496Z,19.37
2022-08-02T02:00:51.720Z,19.29
2022-08-02T02:03:24.582Z,19.28
2022-08-02T02:05:57.265Z,19.29
2022-08-02T02:08:30.477Z,19.22
2022-08-02T02:12:09.617Z,19.39
2022-08-02T02:13:38.467Z,19.39
2022-08-02T02:16:10.887Z,19.34
2022-08-02T02:18:43.266Z,19.23
2022-08-02T02:21:13.976Z,19.23
2022-08-02T02:23:44.318Z,19.33
2022-08-02T02:29:00.504Z,19.07
2022-08-02T02:34:24.959Z,19.06
2022-08-02T02:36:58.425Z,19.05
2022-08-02T02:39:30.558Z,19.20
2022-08-02T02:42:03.138Z,19.20
2022-08-02T02:44:35.627Z,19.30
2022-08-02T02:47:07.157Z,19.26
2022-08-02T02:49:39.894Z,19.16
2022-08-02T02:52:13.013Z,19.16
2022-08-02T02:54:46.236Z,19.20
2022-08-02T02:57:17.511Z,19.18
2022-08-02T02:59:49.418Z,19.20
2022-08-02T03:02:21.062Z,19.20
2022-08-02T03:04:57.153Z,19.23
2022-08-02T03:07:24.247Z,19.23
2022-08-02T03:09:55.691Z,19.31
2022-08-02T03:12:31.562Z,19.31
2022-08-02T03:15:01.756Z,19.41
2022-08-02T03:17:46.416Z,19.41
2022-08-02T03:20:18.768Z,19.49
2022-08-02T03:22:49.814Z,19.52
2022-08-02T03:25:20.088Z,19.55
2022-08-02T03:27:50.965Z,19.56
2022-08-02T03:30:21.182Z,19.56
2022-08-02T03:32:51.555Z,19.55
2022-08-02T03:35:24.065Z,19.55
2022-08-02T03:37:56.647Z,19.70
2022-08-02T03:40:28.528Z,19.66
2022-08-02T03:42:59.684Z,19.66
2022-08-02T03:45:30.759Z,19.63
2022-08-02T03:48:31.779Z,19.70
2022-08-02T03:50:38.329Z,19.70
2022-08-02T03:53:09.462Z,19.86
2022-08-02T03:55:41.455Z,19.90
2022-08-02T03:58:19.545Z,19.90
2022-08-02T04:00:50.386Z,19.93
2022-08-02T04:03:21.315Z,19.99
2022-08-02T04:06:01.026Z,20.03
2022-08-02T04:08:35.587Z,20.06
2022-08-02T04:10:56.784Z,20.06
2022-08-02T04:13:34.479Z,20.28
2022-08-02T04:16:19.716Z,20.29
2022-08-02T04:18:53.179Z,20.33
2022-08-02T04:21:26.394Z,20.33
2022-08-02T04:23:59.180Z,20.50
2022-08-02T04:26:32.054Z,20.33
2022-08-02T04:29:03.339Z,20.33
2022-08-02T04:31:35.271Z,20.53
2022-08-02T04:34:07.718Z,20.79
2022-08-02T04:36:39.031Z,20.79
2022-08-02T04:39:09.416Z,20.88
2022-08-02T04:42:00.689Z,21.10
2022-08-02T04:44:31.051Z,21.20
2022-08-02T04:47:06.687Z,21.31
2022-08-02T04:49:35.633Z,21.21
2022-08-02T04:52:06.082Z,21.21
2022-08-02T04:54:37.301Z,21.80
2022-08-02T04:57:07.795Z,21.80
2022-08-02T04:59:38.114Z,21.77
2022-08-02T05:02:08.597Z,21.85
2022-08-02T05:04:39.242Z,21.90
2022-08-02T05:07:09.897Z,21.92
2022-08-02T05:09:40.934Z,22.31
2022-08-02T05:12:11.702Z,22.31
2022-08-02T05:14:44.394Z,22.52
2022-08-02T05:17:14.983Z,22.66
2022-08-02T05:19:45.254Z,22.66
2022-08-02T05:22:15.619Z,22.89
2022-08-02T05:24:45.981Z,22.95
2022-08-02T05:27:21.223Z,22.60
2022-08-02T05:29:52.996Z,22.77
2022-08-02T05:32:20.477Z,22.94
2022-08-02T05:34:52.389Z,22.94
2022-08-02T05:37:22.711Z,23.40
2022-08-02T05:39:56.114Z,23.77
2022-08-02T05:42:25.892Z,23.77
2022-08-02T05:44:56.112Z,23.56
2022-08-02T05:47:26.536Z,23.56
2022-08-02T05:49:56.871Z,23.54
2022-08-02T05:52:29.534Z,24.03
2022-08-02T05:55:17.480Z,23.86
2022-08-02T05:58:14.833Z,24.11
2022-08-02T06:00:47.796Z,24.11
2022-08-02T06:03:27.042Z,24.08
2022-08-02T06:06:02.521Z,24.47
2022-08-02T06:08:36.007Z,24.21
2022-08-02T06:11:07.111Z,24.07
2022-08-02T06:13:37.838Z,24.07
2022-08-02T06:16:14.149Z,24.75
2022-08-02T06:18:45.781Z,24.35
2022-08-02T06:22:32.785Z,24.79
2022-08-02T06:23:58.588Z,24.98
2022-08-02T06:26:23.325Z,25.55
2022-08-02T06:28:55.031Z,25.55
2022-08-02T06:31:25.861Z,25.41
2022-08-02T06:33:56.659Z,24.49
2022-08-02T06:36:32.618Z,25.33
2022-08-02T06:41:56.031Z,25.37
2022-08-02T06:47:11.162Z,25.55
2022-08-02T06:49:52.019Z,25.33
2022-08-02T06:52:04.445Z,25.33
2022-08-02T06:54:34.844Z,24.81
2022-08-02T06:57:05.412Z,24.93
2022-08-02T06:59:35.765Z,25.33
2022-08-02T07:02:06.115Z,25.50
2022-08-02T07:04:36.513Z,25.61
2022-08-02T07:07:06.789Z,25.61
2022-08-02T07:09:37.622Z,25.98
2022-08-02T07:12:08.105Z,25.96
2022-08-02T07:14:38.987Z,25.67
2022-08-02T07:17:09.244Z,26.13
2022-08-02T07:19:39.441Z,26.06
2022-08-02T07:22:09.725Z,25.79
2022-08-02T07:24:40.203Z,26.35
2022-08-02T07:27:12.265Z,26.35
2022-08-02T07:29:45.194Z,26.58
2022-08-02T07:32:16.917Z,26.14
2022-08-02T07:34:51.254Z,26.41
2022-08-02T07:37:54.140Z,26.41
2022-08-02T07:39:53.622Z,26.24
2022-08-02T07:42:41.652Z,26.24
2022-08-02T07:45:14.690Z,26.41
2022-08-02T07:47:45.603Z,28.63
2022-08-02T07:50:18.220Z,28.63
2022-08-02T07:52:48.797Z,28.27
2022-08-02T07:55:18.954Z,29.34
2022-08-02T07:57:49.345Z,28.98
2022-08-02T08:00:20.127Z,30.22
2022-08-02T08:02:50.481Z,29.66
2022-08-02T08:05:20.936Z,29.66
2022-08-02T08:07:51.386Z,29.18
2022-08-02T08:10:21.707Z,28.46
2022-08-02T08:12:52.381Z,28.46
2022-08-02T08:15:22.705Z,29.16
2022-08-02T08:17:53.333Z,29.16
2022-08-02T08:20:23.669Z,29.47
2022-08-02T08:22:54.369Z,29.47
2022-08-02T08:25:27.268Z,28.88
2022-08-02T08:27:57.146Z,29.90
2022-08-02T08:30:30.563Z,30.20
2022-08-02T08:33:01.287Z,30.20
2022-08-02T08:35:31.836Z,28.77
2022-08-02T08:38:07.237Z,28.85
2022-08-02T08:40:35.399Z,28.94
2022-08-02T08:43:06.137Z,29.72
2022-08-02T08:45:37.782Z,29.72
2022-08-02T08:48:13.134Z,29.87
2022-08-02T08:50:52.167Z,29.57
2022-08-02T08:53:36.403Z,29.50
2022-08-02T08:55:57.143Z,30.40
2022-08-02T08:58:28.728Z,30.40
2022-08-02T09:01:02.326Z,31.12
2022-08-02T09:03:34.030Z,30.73
2022-08-02T09:06:04.908Z,30.73
2022-08-02T09:08:38.073Z,30.89
2022-08-02T09:11:20.011Z,29.92
2022-08-02T09:13:55.950Z,29.92
2022-08-02T09:16:34.281Z,30.08
2022-08-02T09:19:29.939Z,30.08
2022-08-02T09:22:08.051Z,30.34
2022-08-02T09:24:47.343Z,28.89
2022-08-02T09:27:20.242Z,29.17
2022-08-02T09:30:12.769Z,29.97
2022-08-02T09:32:33.473Z,30.41
2022-08-02T09:35:06.937Z,30.41
2022-08-02T09:37:37.247Z,31.57
2022-08-02T09:40:10.778Z,31.57
2022-08-02T09:42:52.760Z,32.18
2022-08-02T09:45:24.633Z,31.54
2022-08-02T09:47:54.922Z,31.54
2022-08-02T09:50:25.221Z,32.36
2022-08-02T09:52:59.099Z,32.36
2022-08-02T09:55:29.823Z,33.05
2022-08-02T09:58:03.139Z,31.63
2022-08-02T10:00:51.941Z,32.99
2022-08-02T10:03:16.712Z,33.38
2022-08-02T10:05:56.222Z,33.94
2022-08-02T10:08:28.206Z,32.25
2022-08-02T10:10:59.749Z,32.25
2022-08-02T10:13:35.074Z,32.62
2022-08-02T10:16:06.100Z,31.53
2022-08-02T10:18:40.447Z,32.23
2022-08-02T10:21:12.205Z,31.80
2022-08-02T10:23:44.907Z,31.80
2022-08-02T10:26:17.798Z,31.85
2022-08-02T10:28:49.822Z,31.63
2022-08-02T10:31:23.022Z,33.52
2022-08-02T10:33:56.057Z,33.52
2022-08-02T10:36:28.423Z,32.79
2022-08-02T10:39:01.577Z,32.79
2022-08-02T10:41:46.281Z,32.45
2022-08-02T10:44:28.486Z,33.40
2022-08-02T10:47:24.480Z,34.15
2022-08-02T10:49:56.580Z,34.15
2022-08-02T10:52:31.130Z,35.80
2022-08-02T10:55:13.303Z,35.13
2022-08-02T10:57:42.450Z,34.49
2022-08-02T11:00:26.559Z,34.49
2022-08-02T11:02:56.856Z,34.09
2022-08-02T11:05:42.588Z,32.69
2022-08-02T11:08:21.850Z,31.45
2022-08-02T11:10:52.297Z,31.45
2022-08-02T11:13:22.712Z,31.15
2022-08-02T11:16:05.485Z,29.54
2022-08-02T11:18:55.899Z,29.54
2022-08-02T11:21:28.342Z,30.66
2022-08-02T11:24:18.030Z,31.77
2022-08-02T11:26:48.343Z,32.03
2022-08-02T11:29:20.163Z,32.93
2022-08-02T11:31:50.645Z,32.93
2022-08-02T11:34:36.830Z,32.82
2022-08-02T11:36:55.960Z,33.22
2022-08-02T11:39:26.567Z,32.62
2022-08-02T11:41:58.757Z,32.44
2022-08-02T11:44:31.763Z,31.81
2022-08-02T11:47:03.146Z,31.81
2022-08-02T11:49:33.855Z,32.99
2022-08-02T11:52:07.395Z,32.99
2022-08-02T11:54:40.208Z,33.01
2022-08-02T11:57:20.822Z,32.93
2022-08-02T11:59:53.790Z,32.93
2022-08-02T12:02:27.038Z,33.33
2022-08-02T12:05:01.979Z,33.90
2022-08-02T12:07:36.301Z,33.56
2022-08-02T12:10:16.838Z,33.77
2022-08-02T12:12:56.060Z,34.35
2022-08-02T12:15:37.659Z,35.42
2022-08-02T12:18:18.739Z,35.42
2022-08-02T12:20:49.024Z,34.85
2022-08-02T12:23:19.232Z,35.81
2022-08-02T12:26:09.530Z,35.87
2022-08-02T12:28:41.651Z,35.98
2022-08-02T12:31:13.907Z,36.43
2022-08-02T12:33:52.493Z,36.10
2022-08-02T12:36:25.038Z,37.71
2022-08-02T12:39:00.810Z,37.71
2022-08-02T12:41:32.747Z,37.92
2022-08-02T12:44:03.786Z,35.74
2022-08-02T12:46:41.961Z,35.74
2022-08-02T12:49:19.064Z,37.24
2022-08-02T12:51:56.328Z,34.12
2022-08-02T12:54:28.645Z,34.12
2022-08-02T12:56:56.612Z,32.34
2022-08-02T12:59:41.158Z,32.34
2022-08-02T13:02:13.655Z,31.59
2022-08-02T13:04:50.344Z,31.34
2022-08-02T13:07:16.489Z,31.34
2022-08-02T13:09:46.961Z,32.03
2022-08-02T13:12:17.872Z,31.01
2022-08-02T13:14:48.536Z,33.83
2022-08-02T13:17:18.907Z,35.10
2022-08-02T13:19:51.165Z,35.19
2022-08-02T13:22:21.176Z,35.19
2022-08-02T13:24:56.121Z,33.25
2022-08-02T13:27:25.730Z,31.90
2022-08-02T13:29:56.932Z,32.39
2022-08-02T13:32:27.984Z,32.39
2022-08-02T13:34:59.140Z,32.86
2022-08-02T13:37:29.417Z,33.38
2022-08-02T13:40:20.477Z,33.05
2022-08-02T13:42:32.341Z,33.05
2022-08-02T13:45:13.421Z,33.04
2022-08-02T13:47:57.268Z,32.77
2022-08-02T13:50:08.211Z,32.28
2022-08-02T13:52:38.661Z,33.04
2022-08-02T13:55:12.341Z,34.09
2022-08-02T13:57:41.870Z,34.86
2022-08-02T14:00:16.769Z,35.16
2022-08-02T14:02:47.390Z,35.16
2022-08-02T14:05:17.709Z,33.25
2022-08-02T14:07:49.646Z,32.07
2022-08-02T14:10:20.005Z,32.07
2022-08-02T14:12:56.555Z,31.25
2022-08-02T14:15:22.464Z,30.61
2022-08-02T14:17:52.932Z,30.31
2022-08-02T14:20:30.239Z,30.31
2022-08-02T14:22:56.257Z,30.08
2022-08-02T14:25:26.578Z,30.08
2022-08-02T14:27:56.920Z,30.01
2022-08-02T14:30:27.274Z,30.36
2022-08-02T14:33:36.728Z,30.20
2022-08-02T14:36:07.874Z,29.49
2022-08-02T14:38:38.316Z,29.49
2022-08-02T14:41:08.713Z,29.09
2022-08-02T14:43:39.102Z,29.09
2022-08-02T14:46:09.332Z,28.67
2022-08-02T14:48:39.594Z,28.58
2022-08-02T14:51:10.020Z,28.63
2022-08-02T14:53:49.643Z,28.63
2022-08-02T14:56:13.076Z,28.75
2022-08-02T14:58:43.388Z,28.79
2022-08-02T15:01:13.892Z,28.65
2022-08-02T15:03:44.522Z,28.18
2022-08-02T15:06:15.027Z,28.08
2022-08-02T15:08:45.470Z,28.08
2022-08-02T15:11:15.757Z,27.52
2022-08-02T15:13:46.358Z,27.52
2022-08-02T15:16:16.968Z,27.19
2022-08-02T15:18:47.249Z,27.42
2022-08-02T15:21:42.049Z,27.26
2022-08-02T15:23:49.506Z,27.26
2022-08-02T15:26:19.911Z,27.52
2022-08-02T15:28:55.627Z,27.47
2022-08-02T15:31:33.541Z,27.47
2022-08-02T15:33:55.377Z,26.99
2022-08-02T15:36:26.472Z,26.99
2022-08-02T15:38:56.838Z,27.25
2022-08-02T15:41:27.165Z,26.92
2022-08-02T15:44:00.750Z,26.92
2022-08-02T15:46:30.923Z,27.04
2022-08-02T15:49:01.894Z,26.90
2022-08-02T15:51:32.701Z,26.90
2022-08-02T15:54:03.114Z,26.74
2022-08-02T15:56:33.459Z,26.73
2022-08-02T15:59:03.751Z,26.73
2022-08-02T16:01:37.780Z,26.60
2022-08-02T16:04:07.711Z,26.66
2022-08-02T16:06:38.077Z,26.66
2022-08-02T16:09:08.840Z,26.28
2022-08-02T16:11:39.883Z,26.32
2022-08-02T16:14:10.181Z,26.32
2022-08-02T16:16:40.431Z,26.06
2022-08-02T16:19:46.423Z,26.13
2022-08-02T16:21:42.705Z,26.15
2022-08-02T16:24:13.231Z,26.14
2022-08-02T16:26:43.537Z,26.17
2022-08-02T16:29:14.462Z,26.17
2022-08-02T16:31:48.357Z,26.23
2022-08-02T16:34:18.900Z,26.03
2022-08-02T16:36:49.213Z,26.09
2022-08-02T16:39:19.541Z,26.01
2022-08-02T16:41:51.488Z,25.93
2022-08-02T16:44:29.569Z,25.93
2022-08-02T16:46:55.246Z,25.86
2022-08-02T16:50:05.744Z,25.79
2022-08-02T16:52:02.080Z,25.70
2022-08-02T16:54:32.949Z,25.53
2022-08-02T16:57:03.265Z,25.53
2022-08-02T16:59:42.630Z,25.41
2022-08-02T17:02:11.572Z,25.41
2022-08-02T17:04:38.764Z,25.28
2022-08-02T17:07:11.197Z,25.11
2022-08-02T17:10:04.175Z,25.11
2022-08-02T17:12:16.968Z,24.84
2022-08-02T17:14:55.115Z,24.84
2022-08-02T17:17:21.043Z,24.77
2022-08-02T17:19:51.849Z,24.77
2022-08-02T17:22:23.095Z,24.64
2022-08-02T17:24:55.062Z,24.57
2022-08-02T17:27:25.502Z,24.25
2022-08-02T17:29:57.015Z,24.25
2022-08-02T17:32:29.247Z,24.30
2022-08-02T17:35:00.276Z,24.22
2022-08-02T17:37:32.685Z,24.22
2022-08-02T17:40:04.634Z,23.97
2022-08-02T17:42:36.039Z,23.99
2022-08-02T17:45:24.936Z,23.92
2022-08-02T17:47:42.089Z,23.94
2022-08-02T17:50:12.971Z,23.78
2022-08-02T17:52:52.539Z,23.78
2022-08-02T17:55:16.111Z,23.75
2022-08-02T17:57:55.617Z,23.64
2022-08-02T18:00:19.771Z,23.60
2022-08-02T18:02:52.590Z,23.60
2022-08-02T18:05:22.138Z,23.55
2022-08-02T18:07:56.817Z,23.45
2022-08-02T18:10:25.436Z,23.41
2022-08-02T18:12:56.728Z,23.33
2022-08-02T18:15:26.997Z,23.41
2022-08-02T18:17:58.941Z,23.30
2022-08-02T18:20:29.250Z,23.24
2022-08-02T18:23:00.360Z,23.24
2022-08-02T18:25:36.912Z,23.07
2022-08-02T18:28:03.360Z,23.07
2022-08-02T18:30:33.882Z,23.00
2022-08-02T18:33:58.139Z,23.03
2022-08-02T18:35:39.561Z,22.98
2022-08-02T18:38:11.584Z,23.00
2022-08-02T18:40:44.793Z,23.00
2022-08-02T18:43:25.477Z,23.01
2022-08-02T18:46:07.218Z,23.01
2022-08-02T18:48:30.181Z,22.76
2022-08-02T18:50:58.359Z,22.82
2022-08-02T18:53:41.174Z,22.90
2022-08-02T18:56:04.078Z,22.91
2022-08-02T18:58:33.247Z,22.91
2022-08-02T19:01:05.160Z,22.81
2022-08-02T19:03:37.064Z,22.81
2022-08-02T19:06:12.472Z,22.80
2022-08-02T19:08:42.970Z,22.75
2022-08-02T19:11:14.595Z,22.75
2022-08-02T19:13:45.057Z,22.70
2022-08-02T19:16:15.691Z,22.62
2022-08-02T19:18:46.084Z,22.67
2022-08-02T19:21:17.224Z,22.61
2022-08-02T19:23:54.614Z,22.63
2022-08-02T19:26:23.761Z,22.46
2022-08-02T19:28:56.200Z,22.46
2022-08-02T19:31:28.224Z,22.47
2022-08-02T19:34:07.166Z,22.40
2022-08-02T19:36:34.231Z,22.45
2022-08-02T19:39:04.914Z,22.45
2022-08-02T19:41:44.091Z,22.33
2022-08-02T19:44:23.523Z,22.29
2022-08-02T19:46:49.044Z,22.12
2022-08-02T19:49:16.347Z,22.12
2022-08-02T19:51:54.595Z,22.17
2022-08-02T19:54:16.837Z,22.13
2022-08-02T19:56:47.332Z,22.09
2022-08-02T19:59:17.726Z,22.02
2022-08-02T20:01:49.170Z,21.84
2022-08-02T20:04:23.415Z,21.84
2022-08-02T20:06:52.151Z,21.86
2022-08-02T20:09:22.820Z,21.74
2022-08-02T20:11:54.902Z,21.74
2022-08-02T20:14:27.017Z,21.81
2022-08-02T20:17:01.265Z,21.75
2022-08-02T20:19:32.327Z,21.75
2022-08-02T20:22:04.580Z,21.60
2022-08-02T20:24:35.426Z,21.57
2022-08-02T20:27:05.813Z,21.57
2022-08-02T20:29:43.030Z,21.51
2022-08-02T20:32:08.095Z,21.49
2022-08-02T20:34:48.644Z,21.48
2022-08-02T20:38:02.286Z,21.41
2022-08-02T20:39:50.341Z,21.59
2022-08-02T20:42:23.062Z,21.46
2022-08-02T20:44:53.510Z,21.61
2022-08-02T20:47:27.777Z,21.58
2022-08-02T20:50:01.919Z,21.57
2022-08-02T20:52:33.162Z,21.57
2022-08-02T20:55:03.591Z,21.54
2022-08-02T20:57:48.503Z,21.54
2022-08-02T21:00:08.214Z,21.54
2022-08-02T21:02:39.219Z,21.41
2022-08-02T21:05:15.345Z,21.37
2022-08-02T21:07:42.780Z,21.37
2022-08-02T21:10:14.736Z,21.41
2022-08-02T21:12:45.570Z,21.41
2022-08-02T21:15:16.363Z,21.38
2022-08-02T21:17:48.642Z,21.33
2022-08-02T21:20:18.948Z,21.26
2022-08-02T21:22:52.709Z,21.26
2022-08-02T21:25:24.040Z,21.16
2022-08-02T21:27:55.914Z,21.27
2022-08-02T21:30:26.343Z,21.29
2022-08-02T21:32:57.021Z,21.39
2022-08-02T21:35:27.970Z,21.20
2022-08-02T21:37:59.604Z,21.20
2022-08-02T21:40:29.992Z,21.22
2022-08-02T21:43:00.389Z,21.12
2022-08-02T21:45:30.731Z,21.12
2022-08-02T21:48:01.556Z,21.02
2022-08-02T21:50:32.266Z,21.02
2022-08-02T21:53:02.874Z,20.85
2022-08-02T21:56:00.580Z,20.85
2022-08-02T21:58:05.634Z,20.75
2022-08-02T22:00:37.478Z,20.74
2022-08-02T22:03:22.727Z,20.74
2022-08-02T22:05:40.207Z,20.87
2022-08-02T22:08:12.192Z,20.87
2022-08-02T22:10:44.116Z,20.71
2022-08-02T22:13:16.142Z,20.61
2022-08-02T22:15:46.711Z,20.53
2022-08-02T22:18:21.270Z,20.53
2022-08-02T22:20:50.148Z,20.65
2022-08-02T22:23:38.866Z,20.59
2022-08-02T22:25:55.039Z,20.56
2022-08-02T22:28:39.025Z,20.43
2022-08-02T22:31:00.176Z,20.43
2022-08-02T22:33:33.555Z,20.41
2022-08-02T22:36:03.948Z,20.45
2022-08-02T22:38:34.468Z,20.44
2022-08-02T22:41:04.715Z,20.42
2022-08-02T22:43:36.932Z,20.34
2022-08-02T22:46:09.287Z,20.45
2022-08-02T22:53:45.478Z,20.25
2022-08-02T22:56:16.779Z,20.34
2022-08-02T22:59:09.878Z,20.49
2022-08-02T23:01:19.799Z,20.42
2022-08-02T23:03:50.152Z,20.37
2022-08-02T23:06:22.836Z,20.37
2022-08-02T23:08:52.339Z,20.29
2022-08-02T23:11:22.766Z,20.42
2022-08-02T23:13:53.062Z,20.36
2022-08-02T23:16:23.348Z,20.25
2022-08-02T23:18:53.874Z,20.21
2022-08-02T23:22:01.801Z,20.33
2022-08-02T23:23:56.496Z,20.26
2022-08-02T23:26:26.973Z,20.26
2022-08-02T23:28:57.295Z,20.23
2022-08-02T23:31:33.164Z,20.24
2022-08-02T23:34:25.822Z,20.20
2022-08-02T23:36:56.169Z,20.11
2022-08-02T23:39:26.658Z,20.11
2022-08-02T23:41:57.192Z,20.19
2022-08-02T23:44:28.523Z,20.18
2022-08-02T23:46:59.661Z,20.25
2022-08-02T23:49:29.988Z,20.26
2022-08-02T23:52:01.852Z,20.33
2022-08-02T23:54:32.319Z,20.28
2022-08-02T23:57:20.140Z,20.19
2022-08-02T23:59:34.471Z,20.19
